Lysite, Wyoming
Current Conditions -  °F | °C
As of 2:35 PM on Thursday 27 Nov 2014 (Local Time) from KTBX Reporting Station
Clear Clear  
Wind Chill: 37°   Ceiling: Unl
Heat Index: 45°   Visibility: 10mi
Dew Point: 27°   Wind: 17mph
Humidity: 49%   Direction: 230°SW
Pressure: 30.14"   Gusts: 29mph
Location:  43.27°N, 107.69°W
Report Text: KTBX 272135Z AUTO 23015G25KT 10SM CLR 07/M03 A3014 RMK AO2
Loading
Personal Weather Stations






























Interactive Weather Map New forecast layout! Learn more

10-Day Weather Forecast

Advertisements
Track Severe Weather on mobile